Time;durP1;ratioP1;P1;durP2;ratioP2;P2;SDS_P1;SDS_P2;PMS_P1;PMS_P2;Temp;Humidity;BMP_temperature;BMP_pressure;BME280_temperature;BME280_humidity;BME280_pressure;Samples;Min_cycle;Max_cycle;Signal;HPM_P1;HPM_P2
2023/01/02 00:01:46;;;;;;;14.80;13.03;;;7.20;99.90;;;;;;5000318;28;20180;-81
2023/01/02 00:04:12;;;;;;;25.13;23.20;;;7.10;99.90;;;;;;4987108;28;20192;-81
2023/01/02 00:06:38;;;;;;;18.13;16.60;;;7.10;99.90;;;;;;4980654;28;20239;-81
2023/01/02 00:09:05;;;;;;;14.20;12.87;;;7.20;99.90;;;;;;4980858;28;20211;-82
2023/01/02 00:11:32;;;;;;;12.30;11.00;;;7.10;99.90;;;;;;4998527;28;20546;-81
2023/01/02 00:13:58;;;;;;;13.07;11.87;;;7.10;99.90;;;;;;4981295;28;20191;-81
2023/01/02 00:16:24;;;;;;;13.67;12.57;;;7.10;99.90;;;;;;4999032;28;20180;-82
2023/01/02 00:18:50;;;;;;;12.20;11.10;;;7.20;99.90;;;;;;4997749;28;20223;-81
2023/01/02 00:21:16;;;;;;;11.57;10.40;;;7.20;99.90;;;;;;5016615;28;20219;-81
2023/01/02 00:23:42;;;;;;;10.50;9.57;;;7.30;99.90;;;;;;5001067;28;20183;-81
2023/01/02 00:26:08;;;;;;;10.40;9.40;;;7.30;99.90;;;;;;5021342;28;20215;-81
2023/01/02 00:28:35;;;;;;;10.50;9.53;;;7.40;99.90;;;;;;5008006;28;20183;-82
2023/01/02 00:31:09;;;;;;;10.77;9.83;;;7.40;99.90;;;;;;4998049;28;20218;-81
2023/01/02 00:33:36;;;;;;;11.40;10.30;;;7.40;99.90;;;;;;5017889;28;20183;-81
2023/01/02 00:36:07;;;;;;;14.83;13.67;;;7.40;99.90;;;;;;5017980;28;20345;-81
2023/01/02 00:38:34;;;;;;;10.40;9.40;;;7.40;99.90;;;;;;4999450;28;20250;-82
2023/01/02 00:41:00;;;;;;;11.53;8.83;;;7.30;99.90;;;;;;4999618;28;20747;-81
2023/01/02 00:43:26;;;;;;;11.53;9.60;;;7.30;99.90;;;;;;4999834;28;20216;-82
2023/01/02 00:45:52;;;;;;;11.47;10.33;;;7.30;99.90;;;;;;5001764;28;20212;-82
2023/01/02 00:48:18;;;;;;;14.70;12.30;;;7.30;99.90;;;;;;5002062;28;20180;-82
2023/01/02 00:50:44;;;;;;;13.83;12.43;;;7.30;99.90;;;;;;4999564;28;20188;-82
2023/01/02 00:53:10;;;;;;;17.53;15.90;;;7.30;99.90;;;;;;5000324;28;20199;-81
2023/01/02 00:55:36;;;;;;;18.63;16.87;;;7.30;99.90;;;;;;5001348;28;20213;-81
2023/01/02 00:58:02;;;;;;;17.80;15.30;;;7.30;99.90;;;;;;4998139;28;20187;-80
2023/01/02 01:00:27;;;;;;;15.30;13.40;;;7.30;99.90;;;;;;4998467;28;20204;-80
2023/01/02 01:02:57;;;;;;;15.17;13.93;;;7.20;99.90;;;;;;5000182;28;20195;-81
2023/01/02 01:05:24;;;;;;;16.70;15.17;;;7.30;99.90;;;;;;5000345;28;20211;-81
2023/01/02 01:07:50;;;;;;;14.43;13.30;;;7.40;99.90;;;;;;4999637;28;20180;-81
2023/01/02 01:10:16;;;;;;;9.57;8.73;;;7.40;99.90;;;;;;5017029;28;20274;-82
2023/01/02 01:12:42;;;;;;;12.53;10.40;;;7.40;99.90;;;;;;5000802;28;20176;-80
2023/01/02 01:15:08;;;;;;;13.40;10.73;;;7.50;99.90;;;;;;5001299;28;20180;-81
2023/01/02 01:17:33;;;;;;;12.87;11.67;;;7.50;99.90;;;;;;5024137;28;20179;-80
2023/01/02 01:19:59;;;;;;;15.17;13.63;;;7.50;99.90;;;;;;5039006;28;20211;-80
2023/01/02 01:22:25;;;;;;;14.70;13.30;;;7.40;99.90;;;;;;5004378;28;20275;-81
2023/01/02 01:24:51;;;;;;;12.37;11.37;;;7.40;99.90;;;;;;5019596;28;20207;-82
2023/01/02 01:27:16;;;;;;;15.87;14.40;;;7.40;99.90;;;;;;5017410;28;20239;-82
2023/01/02 01:29:42;;;;;;;15.67;14.17;;;7.30;99.90;;;;;;5035172;28;20210;-80
2023/01/02 01:32:08;;;;;;;16.30;14.90;;;7.30;99.90;;;;;;5026359;28;20188;-82
2023/01/02 01:34:34;;;;;;;13.47;12.17;;;7.30;99.90;;;;;;5003496;28;20648;-80
2023/01/02 01:36:59;;;;;;;10.60;9.50;;;7.30;99.90;;;;;;5018169;28;20290;-80
2023/01/02 01:39:25;;;;;;;9.97;9.17;;;7.20;99.90;;;;;;5017407;28;20206;-81
2023/01/02 01:41:51;;;;;;;10.17;9.10;;;7.20;99.90;;;;;;5010586;28;20176;-82
2023/01/02 01:44:43;;;;;;;11.33;9.87;;;7.10;99.90;;;;;;5000751;28;20679;-82
2023/01/02 01:47:37;;;;;;;11.63;9.27;;;7.10;99.90;;;;;;5016685;28;20309;-81
2023/01/02 01:50:18;;;;;;;15.20;13.80;;;7.00;99.90;;;;;;5007586;28;20206;-82
2023/01/02 01:52:54;;;;;;;19.47;18.07;;;7.00;99.90;;;;;;5008274;28;20258;-82
2023/01/02 01:55:33;;;;;;;21.27;19.50;;;7.00;99.90;;;;;;5004310;28;20246;-82
2023/01/02 01:58:09;;;;;;;16.37;14.73;;;7.00;99.90;;;;;;5018238;28;20205;-82
2023/01/02 02:00:35;;;;;;;12.73;11.53;;;7.00;99.90;;;;;;4999843;28;20218;-81
2023/01/02 02:03:09;;;;;;;11.37;10.40;;;6.90;99.90;;;;;;4999748;28;20179;-81
2023/01/02 02:05:36;;;;;;;11.37;10.30;;;6.80;99.90;;;;;;5017363;28;20214;-82
2023/01/02 02:08:40;;;;;;;10.23;9.10;;;6.80;99.90;;;;;;5015901;28;20267;-81
2023/01/02 02:11:07;;;;;;;13.20;11.90;;;6.80;99.90;;;;;;5015448;28;20207;-82
2023/01/02 02:13:33;;;;;;;12.03;11.00;;;6.80;99.90;;;;;;4999171;28;20183;-82
2023/01/02 02:16:05;;;;;;;11.60;10.50;;;6.80;99.90;;;;;;4994641;28;20192;-80
2023/01/02 02:18:54;;;;;;;16.13;14.87;;;6.80;99.90;;;;;;4989117;28;20181;-81
2023/01/02 02:21:41;;;;;;;18.67;16.87;;;6.80;99.90;;;;;;4982353;28;20233;-81
2023/01/02 02:24:30;;;;;;;18.13;16.23;;;6.80;99.90;;;;;;4998950;28;20191;-80
2023/01/02 02:27:23;;;;;;;23.33;18.00;;;6.80;99.90;;;;;;4990100;28;20247;-80
2023/01/02 02:30:08;;;;;;;16.83;15.33;;;6.80;99.90;;;;;;5004581;28;20219;-81
2023/01/02 02:32:58;;;;;;;17.17;13.23;;;6.80;99.90;;;;;;5015158;28;20705;-80
2023/01/02 02:36:00;;;;;;;16.47;13.87;;;6.80;99.90;;;;;;4998142;28;20241;-81
2023/01/02 02:38:47;;;;;;;14.60;13.03;;;6.80;99.90;;;;;;4997342;28;20219;-81
2023/01/02 02:41:31;;;;;;;12.90;11.70;;;6.70;99.90;;;;;;4997425;28;20207;-80
2023/01/02 02:44:24;;;;;;;15.77;14.37;;;6.70;99.90;;;;;;4997885;28;20207;-80
2023/01/02 02:47:10;;;;;;;15.97;14.23;;;6.70;99.90;;;;;;4998078;28;20734;-80
2023/01/02 02:49:53;;;;;;;16.50;14.83;;;6.80;99.90;;;;;;4997568;28;20206;-80
2023/01/02 02:52:26;;;;;;;15.27;13.77;;;6.80;99.90;;;;;;4995697;28;20661;-80
2023/01/02 02:55:13;;;;;;;16.33;15.03;;;6.70;99.90;;;;;;4977501;28;20173;-80
2023/01/02 02:57:41;;;;;;;17.80;16.40;;;6.70;99.90;;;;;;4997281;28;20199;-79
2023/01/02 03:00:10;;;;;;;16.67;15.47;;;6.70;99.90;;;;;;4986284;28;20192;-81
2023/01/02 03:02:36;;;;;;;16.00;14.80;;;6.70;99.90;;;;;;4999218;28;20210;-81
2023/01/02 03:05:06;;;;;;;15.70;14.50;;;6.70;99.90;;;;;;5000322;28;20188;-81
2023/01/02 03:07:53;;;;;;;14.07;12.87;;;6.70;99.90;;;;;;4998571;28;20184;-80
2023/01/02 03:10:38;;;;;;;13.33;12.27;;;6.70;99.90;;;;;;4989104;28;20218;-81
2023/01/02 03:13:17;;;;;;;14.13;13.07;;;6.70;99.90;;;;;;5015681;28;20182;-81
2023/01/02 03:15:51;;;;;;;13.67;12.30;;;6.80;99.90;;;;;;4998087;28;20205;-81
2023/01/02 03:18:37;;;;;;;10.87;10.07;;;6.80;99.90;;;;;;4997020;28;20193;-81
2023/01/02 03:21:13;;;;;;;10.33;9.47;;;6.70;99.90;;;;;;4997223;28;20207;-81
2023/01/02 03:23:48;;;;;;;11.77;10.23;;;6.70;99.90;;;;;;4997157;28;20193;-81
2023/01/02 03:26:21;;;;;;;13.37;10.40;;;6.60;99.90;;;;;;4997630;28;20215;-81
2023/01/02 03:28:52;;;;;;;14.73;10.43;;;6.60;99.90;;;;;;5014102;28;20187;-80
2023/01/02 03:31:20;;;;;;;11.03;9.93;;;6.60;99.90;;;;;;4996866;28;20203;-80
2023/01/02 03:33:53;;;;;;;11.33;10.10;;;6.50;99.90;;;;;;5007891;28;20274;-79
2023/01/02 03:36:23;;;;;;;10.53;9.43;;;6.50;99.90;;;;;;5014156;28;20184;-79
2023/01/02 03:39:06;;;;;;;10.83;9.83;;;6.40;99.90;;;;;;5000886;28;20191;-80
2023/01/02 03:41:42;;;;;;;15.60;14.47;;;6.40;99.90;;;;;;5015427;28;20632;-81
2023/01/02 03:44:11;;;;;;;14.30;13.10;;;6.50;99.90;;;;;;5020571;28;20202;-79
2023/01/02 03:46:46;;;;;;;13.70;11.93;;;6.40;99.90;;;;;;5016459;28;20227;-80
2023/01/02 03:49:23;;;;;;;10.83;10.03;;;6.40;99.90;;;;;;4998760;28;20191;-80
2023/01/02 03:51:49;;;;;;;11.40;10.33;;;6.50;99.90;;;;;;4998113;28;20198;-80
2023/01/02 03:54:17;;;;;;;11.33;10.23;;;6.40;99.90;;;;;;4997862;28;20562;-80
2023/01/02 03:57:12;;;;;;;11.13;10.23;;;6.40;99.90;;;;;;4997978;28;20278;-80
2023/01/02 04:00:05;;;;;;;12.47;9.23;;;6.40;99.90;;;;;;4986742;28;20218;-80
2023/01/02 04:02:43;;;;;;;12.13;10.93;;;6.40;99.90;;;;;;5018356;28;20184;-80
2023/01/02 04:05:20;;;;;;;12.37;11.37;;;6.50;99.90;;;;;;5015413;28;20254;-80
2023/01/02 04:07:57;;;;;;;12.17;11.20;;;6.50;99.90;;;;;;4996235;28;20243;-80
2023/01/02 04:10:25;;;;;;;12.67;11.77;;;6.50;99.90;;;;;;5013759;28;20211;-80
2023/01/02 04:12:54;;;;;;;13.47;12.37;;;6.50;99.90;;;;;;5014400;28;20207;-80
2023/01/02 04:15:25;;;;;;;13.20;12.30;;;6.50;99.90;;;;;;4996684;28;20201;-79
2023/01/02 04:18:08;;;;;;;9.67;8.70;;;6.40;99.90;;;;;;5013543;28;20179;-79
2023/01/02 04:20:40;;;;;;;9.73;8.80;;;6.40;99.90;;;;;;5013935;28;20203;-80
2023/01/02 04:23:20;;;;;;;9.17;8.37;;;6.30;99.90;;;;;;4996263;28;20268;-80
2023/01/02 04:26:19;;;;;;;9.33;8.37;;;6.20;99.90;;;;;;4996519;28;20207;-79
2023/01/02 04:28:45;;;;;;;8.50;7.73;;;6.20;99.90;;;;;;4991602;28;20188;-79
2023/01/02 04:31:49;;;;;;;9.43;8.53;;;6.20;99.90;;;;;;4996634;28;20776;-80
2023/01/02 04:34:16;;;;;;;10.60;9.57;;;6.10;99.90;;;;;;4999958;28;20184;-79
2023/01/02 04:36:42;;;;;;;10.20;9.30;;;6.10;99.90;;;;;;5017132;28;20190;-80
2023/01/02 04:39:09;;;;;;;9.03;8.23;;;6.10;99.90;;;;;;5017323;28;20190;-79
2023/01/02 04:41:36;;;;;;;9.13;8.47;;;6.00;99.90;;;;;;5017692;28;20180;-80
2023/01/02 04:44:02;;;;;;;11.70;10.80;;;6.10;99.90;;;;;;4999889;28;20242;-80
2023/01/02 04:46:28;;;;;;;11.07;10.20;;;6.10;99.90;;;;;;4999875;28;20211;-80
2023/01/02 04:48:55;;;;;;;11.47;10.73;;;6.10;99.90;;;;;;5002137;28;20680;-80
2023/01/02 04:51:22;;;;;;;11.33;10.43;;;6.10;99.90;;;;;;5009269;28;20206;-80
2023/01/02 04:53:49;;;;;;;11.30;10.40;;;6.20;99.90;;;;;;5003543;28;20676;-80
2023/01/02 04:56:15;;;;;;;10.50;9.37;;;6.20;99.90;;;;;;5018651;28;20186;-79
2023/01/02 04:58:43;;;;;;;9.50;8.80;;;6.10;99.90;;;;;;5000152;28;20184;-79
2023/01/02 05:01:14;;;;;;;10.63;9.93;;;6.10;99.90;;;;;;5000603;28;20620;-79
2023/01/02 05:03:42;;;;;;;12.43;11.30;;;6.00;99.90;;;;;;5000088;28;20637;-80
2023/01/02 05:06:07;;;;;;;11.27;10.37;;;6.00;99.90;;;;;;5018722;28;20208;-80
2023/01/02 05:08:34;;;;;;;11.53;10.33;;;6.00;99.90;;;;;;5004954;28;20180;-80
2023/01/02 05:11:08;;;;;;;12.97;11.77;;;5.90;99.90;;;;;;5036423;22;20224;-78
2023/01/02 05:13:34;;;;;;;10.00;9.17;;;5.90;99.90;;;;;;5002643;28;20180;-77
2023/01/02 05:16:00;;;;;;;10.67;9.77;;;5.90;99.90;;;;;;5003700;28;20180;-77
2023/01/02 05:18:30;;;;;;;10.50;9.80;;;5.90;99.90;;;;;;5014598;28;20192;-78
2023/01/02 05:23:57;;;;;;;28.00;26.30;;;5.80;99.90;;;;;;5021478;28;20187;-77
2023/01/02 05:26:22;;;;;;;14.30;13.30;;;5.80;99.90;;;;;;5020767;28;20249;-77
2023/01/02 05:28:51;;;;;;;13.90;12.93;;;5.80;99.90;;;;;;5007823;28;20184;-77
2023/01/02 05:31:17;;;;;;;21.80;20.40;;;5.80;99.90;;;;;;5008865;28;20196;-80
2023/01/02 05:33:42;;;;;;;28.67;27.00;;;5.70;99.90;;;;;;5009343;28;20294;-77
2023/01/02 05:36:09;;;;;;;34.47;32.43;;;5.70;99.90;;;;;;5000945;28;20197;-78
2023/01/02 05:38:35;;;;;;;13.23;12.23;;;5.70;99.90;;;;;;5014894;28;20220;-76
2023/01/02 05:41:06;;;;;;;12.17;11.20;;;5.70;99.90;;;;;;5024498;28;20203;-77
2023/01/02 05:43:33;;;;;;;9.83;9.03;;;5.70;99.90;;;;;;5006615;28;20288;-77
2023/01/02 05:46:06;;;;;;;8.93;8.23;;;5.70;99.90;;;;;;5003323;28;20213;-78
2023/01/02 05:48:32;;;;;;;8.87;8.20;;;5.70;99.90;;;;;;5013149;28;20230;-77
2023/01/02 05:51:01;;;;;;;9.70;7.97;;;5.70;99.90;;;;;;5018488;28;20196;-77
2023/01/02 05:53:27;;;;;;;10.00;9.30;;;5.70;99.90;;;;;;5002321;28;20188;-78
2023/01/02 05:55:53;;;;;;;8.90;8.23;;;5.70;99.90;;;;;;5002937;28;20191;-77
2023/01/02 05:58:19;;;;;;;9.27;8.43;;;5.70;99.90;;;;;;4997767;28;20192;-77
2023/01/02 06:00:44;;;;;;;8.90;8.23;;;5.70;99.90;;;;;;5009627;28;20192;-76
2023/01/02 06:03:10;;;;;;;12.30;11.40;;;5.80;99.90;;;;;;5016696;28;20787;-76
2023/01/02 06:05:36;;;;;;;10.20;9.50;;;5.70;99.90;;;;;;5025623;28;20200;-75
2023/01/02 06:08:01;;;;;;;9.30;8.60;;;5.70;99.90;;;;;;5024119;28;20195;-75
2023/01/02 06:10:27;;;;;;;8.70;7.40;;;5.70;99.90;;;;;;4987332;28;20244;-77
2023/01/02 06:12:53;;;;;;;7.53;7.03;;;5.70;99.90;;;;;;4994603;28;20263;-77
2023/01/02 06:15:19;;;;;;;9.03;8.47;;;5.70;99.90;;;;;;4993838;28;20263;-77
2023/01/02 06:17:44;;;;;;;7.03;6.20;;;5.70;99.90;;;;;;4991934;28;20172;-76
2023/01/02 06:20:10;;;;;;;7.47;6.87;;;5.60;99.90;;;;;;4993008;28;20180;-77
2023/01/02 06:22:36;;;;;;;7.20;6.70;;;5.60;99.90;;;;;;4994303;28;20223;-77
2023/01/02 06:25:02;;;;;;;6.40;6.00;;;5.50;99.90;;;;;;4993666;28;20263;-77
2023/01/02 06:27:29;;;;;;;7.63;7.00;;;5.50;99.90;;;;;;4988006;28;20246;-77
2023/01/02 06:29:55;;;;;;;9.83;9.03;;;5.50;99.90;;;;;;4998401;28;20161;-77
2023/01/02 06:32:21;;;;;;;12.63;11.60;;;5.50;99.90;;;;;;5011228;28;20243;-76
2023/01/02 06:34:47;;;;;;;14.77;13.67;;;5.50;99.90;;;;;;4991923;28;20725;-76
2023/01/02 06:37:13;;;;;;;12.60;11.47;;;5.50;99.90;;;;;;4993678;28;20185;-78
2023/01/02 06:39:38;;;;;;;11.93;11.07;;;5.50;99.90;;;;;;4995378;28;20230;-77
2023/01/02 06:42:04;;;;;;;11.37;10.37;;;5.60;99.90;;;;;;4995474;28;20646;-77
2023/01/02 06:44:30;;;;;;;9.47;8.67;;;5.50;99.90;;;;;;4994790;28;20188;-77
2023/01/02 06:46:55;;;;;;;8.53;7.83;;;5.50;99.90;;;;;;4988071;28;20310;-76
2023/01/02 06:49:21;;;;;;;7.43;6.90;;;5.60;99.90;;;;;;4990746;28;20185;-76
2023/01/02 06:51:47;;;;;;;8.50;7.70;;;5.50;99.90;;;;;;4994761;28;20204;-77
2023/01/02 06:54:13;;;;;;;8.30;7.47;;;5.50;99.90;;;;;;4991871;28;20584;-77
2023/01/02 06:56:38;;;;;;;7.40;6.63;;;5.40;99.90;;;;;;4977175;28;20225;-75
2023/01/02 06:59:04;;;;;;;7.47;6.80;;;5.40;99.90;;;;;;4988448;28;20196;-77
2023/01/02 07:01:30;;;;;;;8.70;7.83;;;5.30;99.90;;;;;;5006678;28;20208;-76
2023/01/02 07:03:56;;;;;;;10.90;8.70;;;5.30;99.90;;;;;;4996216;28;20176;-77
2023/01/02 07:06:22;;;;;;;8.03;7.10;;;5.20;99.90;;;;;;4996685;28;20856;-77
2023/01/02 07:08:48;;;;;;;7.87;7.13;;;5.20;99.90;;;;;;4995464;28;20191;-77
2023/01/02 07:11:22;;;;;;;9.70;8.80;;;5.20;99.90;;;;;;4998563;28;20207;-77
2023/01/02 07:13:50;;;;;;;15.57;14.57;;;5.20;99.90;;;;;;5003133;28;20242;-77
2023/01/02 07:16:18;;;;;;;14.70;13.63;;;5.20;99.90;;;;;;4992135;28;20189;-76
2023/01/02 07:18:44;;;;;;;14.10;13.03;;;5.20;99.90;;;;;;4997052;28;20183;-81
2023/01/02 07:21:11;;;;;;;15.93;14.47;;;5.20;99.90;;;;;;5004530;28;20215;-77
2023/01/02 07:23:37;;;;;;;14.53;13.57;;;5.30;99.90;;;;;;5021472;28;20198;-78
2023/01/02 07:26:05;;;;;;;13.73;12.83;;;5.20;99.90;;;;;;5019406;28;20219;-77
2023/01/02 07:28:31;;;;;;;16.00;15.17;;;5.20;99.90;;;;;;5015136;28;20192;-78
2023/01/02 07:31:01;;;;;;;10.13;9.27;;;5.20;99.90;;;;;;4999880;28;20215;-78
2023/01/02 07:33:28;;;;;;;8.03;7.43;;;5.20;99.90;;;;;;4998859;28;20188;-78
2023/01/02 07:35:58;;;;;;;11.57;7.57;;;5.20;99.90;;;;;;4998931;28;20187;-80
2023/01/02 07:38:24;;;;;;;9.07;8.47;;;5.30;99.90;;;;;;5007298;28;20676;-77
2023/01/02 07:40:50;;;;;;;15.80;14.57;;;5.30;99.90;;;;;;5017237;28;20212;-77
2023/01/02 07:43:16;;;;;;;13.40;12.60;;;5.30;99.90;;;;;;5002011;28;20187;-77
2023/01/02 07:45:41;;;;;;;16.03;15.17;;;5.40;99.90;;;;;;4991244;28;20200;-76
2023/01/02 07:48:07;;;;;;;27.83;26.17;;;5.40;99.90;;;;;;4989339;28;20203;-76
2023/01/02 07:50:33;;;;;;;31.53;29.63;;;5.50;99.90;;;;;;4989921;28;20222;-76
2023/01/02 07:52:59;;;;;;;20.63;19.40;;;5.50;99.90;;;;;;5000962;28;20180;-78
2023/01/02 07:55:25;;;;;;;14.20;13.20;;;5.50;99.90;;;;;;4974461;28;20188;-77
2023/01/02 07:57:51;;;;;;;8.63;7.93;;;5.50;99.90;;;;;;4972141;28;20279;-77
2023/01/02 08:00:17;;;;;;;8.13;7.53;;;5.50;99.90;;;;;;4982224;28;20181;-77
2023/01/02 08:02:44;;;;;;;12.43;7.20;;;5.50;99.90;;;;;;4978853;28;20201;-79
2023/01/02 08:05:09;;;;;;;10.97;7.40;;;5.50;99.90;;;;;;4989438;28;20191;-79
2023/01/02 08:07:35;;;;;;;9.27;8.37;;;5.50;99.90;;;;;;4993632;28;20211;-79
2023/01/02 08:10:01;;;;;;;12.07;10.97;;;5.60;99.90;;;;;;4996408;28;20180;-79
2023/01/02 08:12:27;;;;;;;19.27;17.57;;;5.60;99.90;;;;;;5013901;28;20243;-78
2023/01/02 08:14:53;;;;;;;17.63;15.57;;;5.70;99.90;;;;;;5004716;28;20271;-79
2023/01/02 08:17:18;;;;;;;16.03;14.43;;;5.70;99.90;;;;;;4995019;28;20184;-80
2023/01/02 08:19:44;;;;;;;16.00;14.30;;;5.80;99.90;;;;;;4999624;28;20184;-77
2023/01/02 08:22:10;;;;;;;14.80;13.27;;;5.90;99.90;;;;;;4997474;28;20204;-77
2023/01/02 08:24:37;;;;;;;13.37;12.00;;;6.00;99.90;;;;;;4997765;28;20180;-77
2023/01/02 08:27:02;;;;;;;12.60;11.03;;;6.10;99.90;;;;;;4997216;28;20255;-78
2023/01/02 08:29:29;;;;;;;19.50;14.37;;;6.20;99.90;;;;;;4997665;28;20204;-77
2023/01/02 08:31:57;;;;;;;24.53;22.83;;;6.30;99.90;;;;;;5005321;28;20204;-77
2023/01/02 08:34:23;;;;;;;23.13;21.47;;;6.40;99.90;;;;;;5005827;28;20267;-79
2023/01/02 08:36:49;;;;;;;14.43;12.33;;;6.50;99.90;;;;;;5003782;28;20211;-78
2023/01/02 08:39:14;;;;;;;12.63;11.33;;;6.40;99.90;;;;;;4995854;28;20745;-80
2023/01/02 08:41:40;;;;;;;19.60;18.30;;;6.50;99.90;;;;;;4999448;28;20590;-79
2023/01/02 08:44:06;;;;;;;25.17;23.67;;;6.60;99.90;;;;;;5000356;28;20185;-77
2023/01/02 08:46:34;;;;;;;11.60;9.67;;;6.80;99.90;;;;;;4996089;28;20218;-78
2023/01/02 08:49:00;;;;;;;11.27;10.43;;;6.90;99.90;;;;;;4995836;28;20211;-78
2023/01/02 08:51:26;;;;;;;33.67;25.07;;;7.00;99.90;;;;;;4997172;28;20206;-77
2023/01/02 08:53:53;;;;;;;19.30;17.17;;;7.10;99.90;;;;;;4998851;28;20191;-79
2023/01/02 08:56:23;;;;;;;16.30;14.70;;;7.30;99.90;;;;;;5002022;28;20232;-78
2023/01/02 08:58:53;;;;;;;22.27;20.53;;;7.50;99.90;;;;;;4998056;28;20597;-79
2023/01/02 09:01:20;;;;;;;66.43;62.13;;;7.60;99.90;;;;;;5001943;28;20257;-79
2023/01/02 09:03:46;;;;;;;52.03;48.33;;;7.80;99.90;;;;;;4997035;28;20188;-80
2023/01/02 09:06:11;;;;;;;24.30;22.30;;;8.00;99.90;;;;;;5004151;28;20319;-80
2023/01/02 09:08:37;;;;;;;23.40;14.83;;;8.20;99.90;;;;;;5003057;28;20260;-79
2023/01/02 09:11:15;;;;;;;19.90;17.83;;;8.30;99.90;;;;;;5004589;28;20622;-80
2023/01/02 09:13:41;;;;;;;19.73;17.73;;;8.50;99.90;;;;;;5003815;28;20192;-80
2023/01/02 09:16:08;;;;;;;35.67;33.07;;;8.70;99.90;;;;;;5006956;28;20180;-78
2023/01/02 09:18:35;;;;;;;33.27;30.97;;;8.80;99.90;;;;;;5011357;28;20188;-78
2023/01/02 09:21:01;;;;;;;24.17;22.10;;;9.00;99.90;;;;;;5013487;28;20299;-78
2023/01/02 09:23:29;;;;;;;14.30;12.50;;;9.30;99.90;;;;;;5006912;28;20215;-80
2023/01/02 09:25:59;;;;;;;23.87;14.37;;;9.30;99.90;;;;;;5006357;28;20220;-80
2023/01/02 09:28:26;;;;;;;16.30;14.60;;;9.40;99.90;;;;;;5001158;28;20188;-79
2023/01/02 09:30:52;;;;;;;15.13;13.83;;;9.50;99.90;;;;;;4991112;28;20209;-74
2023/01/02 09:33:18;;;;;;;16.07;14.07;;;9.50;99.90;;;;;;4992394;28;20673;-76
2023/01/02 09:35:44;;;;;;;18.03;15.37;;;9.50;99.90;;;;;;4990895;28;20223;-77
2023/01/02 09:38:10;;;;;;;17.93;16.17;;;9.50;99.90;;;;;;4991913;28;20185;-77
2023/01/02 09:40:40;;;;;;;15.87;14.47;;;9.60;99.90;;;;;;4992778;28;20533;-76
2023/01/02 09:43:09;;;;;;;17.00;14.07;;;9.50;99.90;;;;;;4992702;28;20287;-77
2023/01/02 09:45:40;;;;;;;14.20;13.10;;;9.30;99.90;;;;;;4992588;28;20219;-76
2023/01/02 09:48:16;;;;;;;54.43;19.90;;;9.20;99.90;;;;;;4992314;28;20268;-76
2023/01/02 09:50:44;;;;;;;26.63;24.00;;;9.30;99.90;;;;;;4991814;28;20176;-76
2023/01/02 09:53:12;;;;;;;25.70;23.13;;;9.50;99.90;;;;;;5002885;28;20219;-75
2023/01/02 09:56:00;;;;;;;23.13;21.33;;;9.70;99.90;;;;;;4995054;28;20196;-77
2023/01/02 09:58:54;;;;;;;24.90;22.90;;;10.10;99.90;;;;;;4991175;28;20192;-77
2023/01/02 10:01:51;;;;;;;15.93;14.67;;;10.10;99.90;;;;;;4993050;28;20288;-76
2023/01/02 10:04:48;;;;;;;14.80;13.20;;;10.10;99.90;;;;;;4993146;28;20219;-75
2023/01/02 10:07:25;;;;;;;17.30;15.80;;;10.00;99.90;;;;;;4991384;28;20724;-75
2023/01/02 10:10:23;;;;;;;25.27;23.60;;;10.00;99.90;;;;;;4991696;28;20196;-75
2023/01/02 10:13:40;;;;;;;41.27;38.13;;;10.10;99.90;;;;;;4996349;28;20224;-81
2023/01/02 10:16:10;;;;;;;44.77;41.47;;;10.30;99.90;;;;;;4974096;28;20239;-79
2023/01/02 10:18:40;;;;;;;36.63;34.10;;;10.40;99.90;;;;;;5003920;28;20250;-81
2023/01/02 10:21:21;;;;;;;19.57;18.17;;;10.40;99.90;;;;;;4999414;28;20204;-79
2023/01/02 10:24:12;;;;;;;18.50;15.23;;;10.40;99.90;;;;;;5007659;28;20188;-80
2023/01/02 10:26:44;;;;;;;71.77;67.57;;;10.60;99.90;;;;;;5018716;28;20824;-80
2023/01/02 10:29:34;;;;;;;58.97;55.33;;;11.10;99.90;;;;;;4996905;28;20176;-78
2023/01/02 10:32:21;;;;;;;11.60;10.53;;;12.50;99.90;;;;;;4983066;28;20205;-76
2023/01/02 10:35:32;;;;;;;9.60;8.67;;;13.40;99.90;;;;;;5011356;28;20266;-76
2023/01/02 10:37:58;;;;;;;12.50;9.37;;;13.90;99.90;;;;;;4972248;28;20184;-78
2023/01/02 10:40:24;;;;;;;19.93;18.33;;;14.60;99.90;;;;;;4972215;28;20184;-78
2023/01/02 10:42:55;;;;;;;25.97;24.13;;;15.10;99.90;;;;;;4974437;28;20204;-76
2023/01/02 10:45:22;;;;;;;20.90;19.17;;;15.50;99.90;;;;;;4978025;28;20172;-78
2023/01/02 10:47:48;;;;;;;17.27;15.70;;;15.70;99.90;;;;;;5007367;28;20195;-78
2023/01/02 10:50:19;;;;;;;11.47;10.53;;;15.40;99.90;;;;;;4992828;28;20216;-78
2023/01/02 10:52:53;;;;;;;14.90;11.23;;;15.70;99.90;;;;;;4991854;28;20205;-77
2023/01/02 10:55:30;;;;;;;10.13;9.10;;;15.70;99.90;;;;;;4999917;28;20180;-79
2023/01/02 10:58:05;;;;;;;13.60;11.23;;;15.60;99.90;;;;;;4991789;28;20184;-78
2023/01/02 11:00:34;;;;;;;11.80;10.67;;;15.60;99.90;;;;;;4994110;28;20192;-77
2023/01/02 11:03:21;;;;;;;11.53;10.40;;;16.00;99.90;;;;;;4994275;28;20180;-79
2023/01/02 11:05:54;;;;;;;12.80;11.03;;;15.70;99.90;;;;;;4993207;28;20223;-78
2023/01/02 11:08:23;;;;;;;11.70;10.60;;;15.00;99.90;;;;;;4993160;28;20345;-78
2023/01/02 11:10:50;;;;;;;10.30;9.30;;;14.60;99.90;;;;;;4993984;28;20176;-78
2023/01/02 11:13:20;;;;;;;10.33;9.07;;;14.40;99.90;;;;;;5053097;22;20230;-79
2023/01/02 11:15:52;;;;;;;11.93;8.70;;;13.90;99.90;;;;;;5016849;28;20303;-82
2023/01/02 11:18:23;;;;;;;10.77;7.80;;;13.80;99.90;;;;;;5039435;28;20256;-80
2023/01/02 11:20:53;;;;;;;12.63;10.50;;;14.10;99.90;;;;;;5034794;28;20610;-81
2023/01/02 11:23:24;;;;;;;13.83;9.47;;;14.90;99.90;;;;;;4998485;28;20210;-80
2023/01/02 11:25:52;;;;;;;8.33;7.43;;;15.90;99.90;;;;;;5013870;28;20219;-79
2023/01/02 11:28:25;;;;;;;12.23;9.57;;;16.80;99.90;;;;;;5012656;28;20180;-80
2023/01/02 11:30:54;;;;;;;12.10;10.87;;;17.50;99.90;;;;;;5012706;28;20619;-80
2023/01/02 11:33:29;;;;;;;16.33;15.23;;;17.50;99.90;;;;;;5013100;28;20176;-80
2023/01/02 11:36:16;;;;;;;19.07;17.77;;;17.70;99.90;;;;;;4995630;28;20210;-80
2023/01/02 11:38:49;;;;;;;32.03;30.30;;;17.70;99.90;;;;;;4996642;28;20254;-80
2023/01/02 11:44:25;;;;;;;40.30;38.00;;;17.80;99.90;;;;;;5012065;28;20348;-80
2023/01/02 11:46:53;;;;;;;26.13;24.37;;;17.30;99.90;;;;;;5011524;28;20207;-79
2023/01/02 11:49:30;;;;;;;19.37;17.87;;;16.90;99.90;;;;;;4994728;28;20196;-80
2023/01/02 11:52:01;;;;;;;17.77;16.47;;;16.60;99.90;;;;;;5011759;28;20239;-80
2023/01/02 11:54:43;;;;;;;18.00;16.40;;;16.30;99.90;;;;;;5012003;28;20234;-80
2023/01/02 11:57:29;;;;;;;17.00;15.67;;;16.40;99.90;;;;;;5012108;28;20171;-76
2023/01/02 12:00:00;;;;;;;16.17;15.03;;;16.60;99.90;;;;;;5007318;28;20556;-79
2023/01/02 12:02:40;;;;;;;14.53;12.90;;;17.00;99.90;;;;;;5011768;28;20206;-80
2023/01/02 12:05:15;;;;;;;10.73;10.00;;;17.40;99.90;;;;;;4990521;28;20185;-80
2023/01/02 12:07:43;;;;;;;8.77;7.93;;;18.50;99.90;;;;;;4991879;28;20432;-79
2023/01/02 12:10:28;;;;;;;8.03;7.40;;;18.70;99.90;;;;;;4977327;28;20543;-81
2023/01/02 12:13:27;;;;;;;8.73;8.03;;;18.20;99.90;;;;;;4976053;28;20290;-80
2023/01/02 12:16:10;;;;;;;9.70;8.73;;;17.60;99.90;;;;;;4993059;28;20275;-80
2023/01/02 12:18:55;;;;;;;18.67;10.10;;;17.30;99.90;;;;;;4994535;28;20184;-82
2023/01/02 12:21:54;;;;;;;9.60;6.67;;;17.10;99.90;;;;;;4998390;28;20227;-80
2023/01/02 12:24:37;;;;;;;10.93;10.07;;;17.00;99.90;;;;;;4994391;28;20191;-80
2023/01/02 12:27:40;;;;;;;10.80;10.03;;;16.90;99.90;;;;;;4993616;28;20219;-80
2023/01/02 12:30:19;;;;;;;14.30;12.80;;;16.80;99.90;;;;;;5011868;28;20197;-80
2023/01/02 12:33:07;;;;;;;13.70;12.37;;;16.70;99.90;;;;;;4994777;28;20214;-79
2023/01/02 12:35:52;;;;;;;11.60;10.83;;;16.70;99.90;;;;;;4992898;28;20719;-79
2023/01/02 12:38:29;;;;;;;16.37;15.17;;;16.90;99.90;;;;;;4991620;28;20180;-79
2023/01/02 12:41:28;;;;;;;22.93;20.80;;;17.10;99.90;;;;;;4991162;28;20650;-81
2023/01/02 12:44:17;;;;;;;17.20;15.97;;;16.90;99.90;;;;;;4996956;28;20673;-81
2023/01/02 12:47:07;;;;;;;22.03;20.53;;;16.80;99.90;;;;;;5000826;28;20219;-78
2023/01/02 12:49:33;;;;;;;19.00;17.23;;;16.80;99.90;;;;;;4980202;28;20200;-79
2023/01/02 12:52:37;;;;;;;20.20;18.90;;;16.80;99.90;;;;;;4981419;28;20287;-79
2023/01/02 12:55:26;;;;;;;20.50;19.30;;;16.80;99.90;;;;;;4990815;28;20242;-77
2023/01/02 12:57:52;;;;;;;19.60;18.23;;;16.90;99.90;;;;;;4987528;28;20185;-80
2023/01/02 13:00:25;;;;;;;21.23;19.87;;;16.80;99.90;;;;;;4980716;28;20195;-81
2023/01/02 13:03:28;;;;;;;24.37;22.93;;;16.70;99.90;;;;;;5014328;28;20227;-80
2023/01/02 13:06:03;;;;;;;19.80;18.27;;;16.30;99.90;;;;;;4997711;28;20264;-80
2023/01/02 13:08:44;;;;;;;21.20;19.80;;;16.00;99.90;;;;;;5019198;28;20186;-79
2023/01/02 13:11:13;;;;;;;15.90;14.63;;;16.00;99.90;;;;;;5020490;28;20199;-80